Time;durP1;ratioP1;P1;durP2;ratioP2;P2;SDS_P1;SDS_P2;PMS_P1;PMS_P2;Temp;Humidity;BMP_temperature;BMP_pressure;BME280_temperature;BME280_humidity;BME280_pressure;Samples;Min_cycle;Max_cycle;Signal;HPM_P1;HPM_P2
2021/06/29 00:00:21;;;;;;;5.10;4.00;;;;;;;24.64;37.36;100796.97;3611783;39;20043;-74
2021/06/29 00:02:58;;;;;;;5.20;4.10;;;;;;;24.62;37.51;100801.97;3607723;39;20055;-74
2021/06/29 00:05:29;;;;;;;4.88;3.75;;;;;;;24.60;37.35;100804.97;3606903;39;20062;-74
2021/06/29 00:07:57;;;;;;;4.35;3.78;;;;;;;24.56;37.58;100800.91;3610755;39;20371;-74
2021/06/29 00:10:26;;;;;;;4.90;4.05;;;;;;;24.57;37.71;100797.03;3608149;39;20458;-74
2021/06/29 00:12:55;;;;;;;5.13;4.50;;;;;;;24.54;37.38;100791.88;3608489;39;20047;-74
2021/06/29 00:15:25;;;;;;;4.80;3.90;;;;;;;24.54;37.60;100797.47;3612921;39;20047;-74
2021/06/29 00:17:53;;;;;;;4.78;4.18;;;;;;;24.51;37.39;100794.28;3611568;39;20062;-74
2021/06/29 00:20:21;;;;;;;5.63;4.10;;;;;;;24.50;37.88;100785.03;3608345;39;20043;-74
2021/06/29 00:22:51;;;;;;;5.25;3.88;;;;;;;24.54;37.68;100791.03;3615562;39;20135;-74
2021/06/29 00:25:19;;;;;;;4.70;4.07;;;;;;;24.50;37.61;100779.44;3605367;39;20440;-74
2021/06/29 00:27:47;;;;;;;5.40;4.05;;;;;;;24.49;37.92;100769.34;3612236;39;20406;-74
2021/06/29 00:30:16;;;;;;;5.53;4.22;;;;;;;24.50;37.96;100771.06;3608895;39;20062;-74
2021/06/29 00:32:45;;;;;;;5.35;4.30;;;;;;;24.48;37.87;100776.00;3609006;39;20063;-74
2021/06/29 00:35:13;;;;;;;4.53;3.88;;;;;;;24.48;38.12;100776.00;3618879;39;20061;-74
2021/06/29 00:37:43;;;;;;;4.72;4.15;;;;;;;24.49;37.68;100779.66;3612807;39;20051;-74
2021/06/29 00:40:13;;;;;;;5.97;4.20;;;;;;;24.49;38.44;100765.69;3608521;39;20054;-75
2021/06/29 00:42:42;;;;;;;5.60;4.13;;;;;;;24.49;38.24;100771.28;3609659;39;20414;-74
2021/06/29 00:45:12;;;;;;;4.75;4.13;;;;;;;24.47;38.47;100782.69;3608316;39;20039;-74
2021/06/29 00:47:41;;;;;;;5.18;4.10;;;;;;;24.45;38.65;100794.09;3609189;39;20055;-74
2021/06/29 00:50:10;;;;;;;5.85;4.25;;;;;;;24.46;38.65;100800.53;3609360;39;20125;-74
2021/06/29 00:52:40;;;;;;;4.97;4.07;;;;;;;24.46;38.60;100806.13;3609216;39;20303;-74
2021/06/29 00:55:14;;;;;;;5.93;4.07;;;;;;;24.47;38.76;100793.00;3617382;39;20160;-75
2021/06/29 00:57:44;;;;;;;4.43;3.60;;;;;;;24.42;38.51;100790.91;3612579;39;20091;-74
2021/06/29 01:00:13;;;;;;;4.10;3.67;;;;;;;24.41;38.40;100798.44;3616212;39;20042;-74
2021/06/29 01:02:42;;;;;;;5.25;3.83;;;;;;;24.38;38.76;100796.06;3612127;39;20063;-74
2021/06/29 01:05:11;;;;;;;4.60;3.72;;;;;;;24.39;38.83;100805.31;3608542;39;20052;-74
2021/06/29 01:07:40;;;;;;;5.07;3.88;;;;;;;24.37;38.87;100790.72;3615285;39;20058;-70
2021/06/29 01:10:10;;;;;;;4.85;4.13;;;;;;;24.34;38.78;100792.03;3618372;39;20059;-70
2021/06/29 01:12:40;;;;;;;5.40;3.70;;;;;;;24.34;38.90;100802.34;3609698;39;20051;-71
2021/06/29 01:15:09;;;;;;;5.28;3.95;;;;;;;24.30;39.01;100806.66;3619086;39;20031;-71
2021/06/29 01:17:38;;;;;;;4.80;3.33;;;;;;;24.26;39.16;100811.84;3618056;39;20040;-71
2021/06/29 01:20:14;;;;;;;5.22;3.75;;;;;;;24.25;39.48;100826.91;3619005;39;20036;-71
2021/06/29 01:22:42;;;;;;;5.55;3.47;;;;;;;24.19;39.40;100815.78;3618932;39;20031;-72
2021/06/29 01:25:14;;;;;;;5.13;2.85;;;;;;;24.15;39.09;100820.09;3609336;39;20023;-70
2021/06/29 01:27:52;;;;;;;4.07;2.45;;;;;;;24.10;39.11;100817.09;3619279;39;20038;-70
2021/06/29 01:33:08;;;;;;;3.80;2.25;;;;;;;23.99;39.37;100818.63;3618987;39;20031;-71
2021/06/29 01:35:40;;;;;;;3.53;2.10;;;;;;;23.97;39.45;100813.25;3617784;39;20031;-70
2021/06/29 01:38:15;;;;;;;;;;;;;;;23.63;39.48;100808.88;3619605;39;20031;-70
2021/06/29 01:40:43;;;;;;;2.47;1.67;;;;;;;23.83;39.22;100794.84;3618584;39;19962;-70
2021/06/29 01:43:11;;;;;;;2.75;1.70;;;;;;;23.82;39.45;100803.44;3618846;39;20031;-73
2021/06/29 01:45:41;;;;;;;2.30;1.35;;;;;;;23.79;39.12;100810.34;3618697;39;20031;-70
2021/06/29 01:48:18;;;;;;;2.70;1.65;;;;;;;23.79;39.13;100817.88;3618968;39;20115;-70
2021/06/29 01:50:47;;;;;;;2.90;1.58;;;;;;;23.75;39.31;100795.09;3618959;39;20032;-70
2021/06/29 01:53:15;;;;;;;2.83;1.60;;;;;;;23.72;39.31;100784.34;3618638;39;20040;-70
2021/06/29 01:55:44;;;;;;;2.50;1.20;;;;;;;23.69;39.46;100796.84;3618322;39;20032;-71
2021/06/29 01:58:18;;;;;;;2.65;1.30;;;;;;;23.68;39.28;100792.31;3618551;39;20042;-70
2021/06/29 02:00:47;;;;;;;2.40;1.40;;;;;;;23.68;39.63;100781.16;3618698;39;20040;-70
2021/06/29 02:03:15;;;;;;;2.35;1.30;;;;;;;23.64;39.67;100771.50;3618755;39;20032;-70
2021/06/29 02:05:45;;;;;;;1.80;1.10;;;;;;;23.65;39.21;100769.56;3617899;39;20041;-70
2021/06/29 02:08:14;;;;;;;1.48;1.10;;;;;;;23.64;39.15;100771.50;3618728;39;20043;-71
2021/06/29 02:10:42;;;;;;;2.10;1.13;;;;;;;23.61;39.32;100779.47;3618582;39;20027;-70
2021/06/29 02:13:10;;;;;;;1.90;1.20;;;;;;;23.60;39.15;100774.94;3618287;39;20043;-70
2021/06/29 02:15:39;;;;;;;1.70;1.10;;;;;;;23.57;38.90;100762.28;3618450;39;20398;-71
2021/06/29 02:18:07;;;;;;;1.90;1.10;;;;;;;23.54;38.83;100768.31;3619034;39;20378;-70
2021/06/29 02:20:35;;;;;;;1.42;1.10;;;;;;;23.51;38.81;100768.75;3618210;39;20353;-70
2021/06/29 02:23:04;;;;;;;2.03;1.10;;;;;;;23.48;38.99;100762.75;3618205;39;20031;-70
2021/06/29 02:25:34;;;;;;;2.38;1.20;;;;;;;23.48;38.67;100757.16;3618375;39;20071;-70
2021/06/29 02:28:02;;;;;;;1.85;1.17;;;;;;;23.43;38.93;100759.72;3618689;39;20035;-70
2021/06/29 02:30:31;;;;;;;1.88;1.20;;;;;;;23.40;39.03;100758.22;3618125;39;20027;-71
2021/06/29 02:32:59;;;;;;;2.60;1.13;;;;;;;23.38;39.09;100751.16;3617166;39;20047;-70
2021/06/29 02:35:28;;;;;;;2.10;1.30;;;;;;;23.35;39.15;100749.66;3618221;39;20045;-70
2021/06/29 02:37:56;;;;;;;1.77;1.30;;;;;;;23.32;38.94;100750.94;3618768;39;20036;-70
2021/06/29 02:40:25;;;;;;;2.13;1.45;;;;;;;23.31;39.12;100756.75;3619848;39;20382;-70
2021/06/29 02:42:55;;;;;;;2.72;1.20;;;;;;;23.31;38.90;100760.38;3619716;39;20267;-71
2021/06/29 02:45:23;;;;;;;2.25;1.20;;;;;;;23.28;38.90;100758.06;3619834;39;20301;-70
2021/06/29 02:47:53;;;;;;;2.05;1.35;;;;;;;23.28;39.10;100771.16;3619649;39;20375;-70
2021/06/29 02:50:21;;;;;;;2.38;1.50;;;;;;;23.26;39.02;100765.78;3619789;39;20036;-70
2021/06/29 02:52:49;;;;;;;2.70;1.60;;;;;;;23.25;39.12;100774.38;3619852;39;20134;-71
2021/06/29 02:55:18;;;;;;;2.38;1.50;;;;;;;23.24;39.10;100779.09;3619724;39;20042;-70
2021/06/29 02:57:46;;;;;;;3.05;1.30;;;;;;;23.23;39.34;100779.31;3619978;39;20195;-71
2021/06/29 03:00:19;;;;;;;2.17;1.15;;;;;;;23.26;38.97;100781.66;3619769;39;20326;-70
2021/06/29 03:02:47;;;;;;;2.38;1.40;;;;;;;23.22;39.06;100767.28;3620033;39;20031;-71
2021/06/29 03:05:16;;;;;;;2.20;1.20;;;;;;;23.23;38.87;100769.00;3619466;39;20034;-71
2021/06/29 03:07:45;;;;;;;2.83;1.55;;;;;;;23.23;38.48;100765.34;3619616;39;20123;-71
2021/06/29 03:10:13;;;;;;;1.90;1.30;;;;;;;23.23;39.33;100762.56;3619765;39;20043;-70
2021/06/29 03:12:41;;;;;;;2.10;1.30;;;;;;;23.22;39.24;100750.53;3619950;39;20035;-70
2021/06/29 03:15:10;;;;;;;3.40;1.63;;;;;;;23.22;39.10;100749.72;3619672;39;20387;-70
2021/06/29 03:17:39;;;;;;;2.20;1.20;;;;;;;23.23;38.97;100754.19;3619637;39;20071;-70
2021/06/29 03:20:10;;;;;;;4.03;1.40;;;;;;;23.23;39.22;100748.59;3619445;39;20038;-70
2021/06/29 03:22:39;;;;;;;2.15;1.58;;;;;;;23.22;39.34;100746.91;3619628;39;20031;-70
2021/06/29 03:25:08;;;;;;;2.42;1.33;;;;;;;23.22;39.23;100744.13;3619649;39;20091;-70
2021/06/29 03:27:37;;;;;;;3.08;1.42;;;;;;;23.20;38.79;100743.47;3619834;39;20031;-70
2021/06/29 03:30:08;;;;;;;2.20;1.30;;;;;;;23.20;39.40;100744.34;3620079;39;20031;-70
2021/06/29 03:32:36;;;;;;;2.22;1.33;;;;;;;23.19;39.24;100742.63;3619686;39;20031;-70
2021/06/29 03:35:08;;;;;;;2.53;1.48;;;;;;;23.20;38.95;100747.13;3619888;39;20115;-70
2021/06/29 03:37:37;;;;;;;2.10;1.30;;;;;;;23.22;38.84;100758.09;3618624;39;20081;-71
2021/06/29 03:40:07;;;;;;;1.67;1.20;;;;;;;23.19;38.90;100759.38;3619703;39;20031;-70
2021/06/29 03:42:36;;;;;;;2.25;1.27;;;;;;;23.17;39.39;100766.22;3618396;39;20035;-71
2021/06/29 03:45:05;;;;;;;2.35;1.50;;;;;;;23.19;38.85;100778.03;3618362;39;20039;-70
2021/06/29 03:47:33;;;;;;;2.50;1.45;;;;;;;23.18;39.07;100781.91;3619271;39;20379;-70
2021/06/29 03:50:01;;;;;;;2.00;1.35;;;;;;;23.17;39.24;100791.34;3619318;39;20038;-70
2021/06/29 03:52:32;;;;;;;2.58;1.60;;;;;;;23.18;39.18;100784.69;3619542;39;20040;-70
2021/06/29 03:55:01;;;;;;;2.58;1.50;;;;;;;23.15;39.19;100783.19;3619514;39;20039;-70
2021/06/29 03:57:29;;;;;;;2.50;1.40;;;;;;;23.15;39.21;100774.81;3619576;39;20027;-71
2021/06/29 03:59:57;;;;;;;2.55;1.58;;;;;;;23.14;39.26;100778.69;3619446;39;20047;-70
2021/06/29 04:02:27;;;;;;;2.58;1.70;;;;;;;23.12;39.44;100766.03;3619624;39;20306;-70
2021/06/29 04:04:55;;;;;;;3.05;1.75;;;;;;;23.10;39.40;100763.47;3619666;39;20038;-71
2021/06/29 04:07:24;;;;;;;2.97;2.10;;;;;;;23.08;39.79;100757.22;3619942;39;20131;-70
2021/06/29 04:09:54;;;;;;;3.38;2.08;;;;;;;23.09;39.63;100763.66;3619601;39;20035;-71
2021/06/29 04:12:23;;;;;;;3.50;2.42;;;;;;;23.05;39.37;100759.63;3619977;39;20031;-70
2021/06/29 04:14:51;;;;;;;3.22;2.35;;;;;;;23.03;39.96;100770.97;3619361;39;20027;-71
2021/06/29 04:17:19;;;;;;;3.60;2.58;;;;;;;23.01;39.94;100775.91;3619544;39;20293;-71
2021/06/29 04:19:47;;;;;;;4.50;3.00;;;;;;;22.98;40.12;100772.69;3619442;39;20031;-70
2021/06/29 04:22:15;;;;;;;4.68;2.85;;;;;;;22.96;40.11;100766.50;3618468;39;20035;-71
2021/06/29 04:24:43;;;;;;;3.95;2.90;;;;;;;22.92;40.15;100775.28;3619254;39;20031;-71
2021/06/29 04:27:13;;;;;;;4.70;3.33;;;;;;;22.92;39.72;100768.84;3619363;39;20463;-71
2021/06/29 04:29:41;;;;;;;4.65;3.17;;;;;;;22.85;40.04;100768.84;3619514;39;20036;-71
2021/06/29 04:32:09;;;;;;;3.72;2.53;;;;;;;22.83;39.68;100775.66;3619584;39;20027;-70
2021/06/29 04:34:37;;;;;;;3.60;2.70;;;;;;;22.78;39.84;100776.34;3618688;39;20035;-71
2021/06/29 04:37:07;;;;;;;3.80;2.75;;;;;;;22.77;40.30;100777.41;3619449;39;20131;-70
2021/06/29 04:39:35;;;;;;;3.72;2.50;;;;;;;22.74;40.40;100774.16;3619798;39;20035;-71
2021/06/29 04:42:04;;;;;;;4.55;3.30;;;;;;;22.72;40.19;100777.19;3619530;39;20047;-71
2021/06/29 04:44:36;;;;;;;3.47;2.50;;;;;;;22.74;40.12;100776.97;3619909;39;20282;-71
2021/06/29 04:47:04;;;;;;;4.93;3.20;;;;;;;22.69;40.26;100774.81;3619343;39;20131;-70
2021/06/29 04:49:33;;;;;;;4.82;2.92;;;;;;;22.70;40.49;100770.09;3619644;39;20035;-70
2021/06/29 04:52:01;;;;;;;4.07;2.90;;;;;;;22.69;40.29;100769.25;3619403;39;20123;-70
2021/06/29 04:54:30;;;;;;;6.35;4.25;;;;;;;22.68;40.62;100766.66;3619508;39;20035;-70
2021/06/29 04:56:58;;;;;;;5.68;3.75;;;;;;;22.66;40.45;100764.09;3619921;39;20027;-70
2021/06/29 04:59:26;;;;;;;5.68;4.00;;;;;;;22.66;40.90;100760.44;3618449;39;20059;-71
2021/06/29 05:01:55;;;;;;;5.57;3.97;;;;;;;22.67;41.08;100760.22;3619038;39;20058;-70
2021/06/29 05:04:24;;;;;;;7.88;5.25;;;;;;;22.68;40.82;100761.09;3619076;39;20039;-71
2021/06/29 05:06:52;;;;;;;8.52;5.18;;;;;;;22.67;41.25;100757.44;3619354;39;20047;-71
2021/06/29 05:09:20;;;;;;;7.47;4.85;;;;;;;22.69;41.22;100754.44;3619547;39;20067;-71
2021/06/29 05:11:48;;;;;;;8.48;6.03;;;;;;;22.71;41.49;100760.69;3619096;39;20039;-70
2021/06/29 05:14:16;;;;;;;9.07;5.82;;;;;;;22.74;41.60;100760.22;3619476;39;20027;-70
2021/06/29 05:16:44;;;;;;;8.50;5.82;;;;;;;22.76;41.33;100758.94;3619387;39;20043;-70
2021/06/29 05:19:13;;;;;;;7.47;5.10;;;;;;;22.82;41.56;100768.38;3619420;39;20031;-71
2021/06/29 05:21:42;;;;;;;7.47;5.20;;;;;;;22.83;41.51;100767.31;3619663;39;20112;-70
2021/06/29 05:24:10;;;;;;;8.27;5.53;;;;;;;22.85;41.13;100776.34;3619353;39;20031;-70
2021/06/29 05:26:38;;;;;;;7.82;4.95;;;;;;;22.87;41.28;100777.00;3619020;39;20322;-70
2021/06/29 05:29:06;;;;;;;5.88;4.32;;;;;;;22.89;41.33;100783.25;3618855;39;20132;-71
2021/06/29 05:31:34;;;;;;;5.53;4.43;;;;;;;22.90;40.77;100776.56;3618916;39;20032;-71
2021/06/29 05:34:03;;;;;;;5.50;3.80;;;;;;;22.91;40.79;100787.50;3609909;39;20290;-71
2021/06/29 05:36:33;;;;;;;5.13;3.33;;;;;;;22.93;41.27;100788.16;3619158;39;20382;-70
2021/06/29 05:39:01;;;;;;;5.38;3.30;;;;;;;22.93;41.28;100792.88;3619004;39;20031;-70
2021/06/29 05:41:29;;;;;;;5.05;3.17;;;;;;;22.92;40.67;100782.78;3619427;39;20038;-71
2021/06/29 05:43:58;;;;;;;4.47;3.25;;;;;;;22.91;40.92;100793.09;3619281;39;20135;-71
2021/06/29 05:46:26;;;;;;;5.75;3.25;;;;;;;22.90;40.80;100798.88;3619105;39;20051;-70
2021/06/29 05:48:54;;;;;;;4.82;3.17;;;;;;;22.88;40.58;100799.13;3618894;39;20027;-70
2021/06/29 05:51:22;;;;;;;4.63;3.20;;;;;;;22.85;40.76;100796.75;3619181;39;20055;-71
2021/06/29 05:53:52;;;;;;;5.05;2.97;;;;;;;22.86;40.89;100800.38;3618961;39;20035;-70
2021/06/29 05:56:20;;;;;;;4.20;2.63;;;;;;;22.82;40.72;100791.53;3619209;39;20039;-71
2021/06/29 05:58:48;;;;;;;4.25;2.35;;;;;;;22.79;40.70;100789.22;3619196;39;20067;-70
2021/06/29 06:01:16;;;;;;;3.65;2.30;;;;;;;22.79;40.68;100793.94;3618945;39;20043;-71
2021/06/29 06:03:53;;;;;;;3.40;1.92;;;;;;;22.76;40.74;100794.34;3618818;39;20116;-71
2021/06/29 06:06:21;;;;;;;2.85;1.85;;;;;;;22.76;40.96;100791.56;3618760;39;20294;-70
2021/06/29 06:08:50;;;;;;;3.50;1.73;;;;;;;22.74;40.69;100791.75;3619088;39;20366;-70
2021/06/29 06:11:19;;;;;;;3.33;1.95;;;;;;;22.75;40.93;100801.84;3617875;39;20043;-70
2021/06/29 06:13:47;;;;;;;4.20;1.75;;;;;;;22.72;40.45;100798.66;3620331;39;20042;-71
2021/06/29 06:16:15;;;;;;;3.20;1.85;;;;;;;22.71;40.55;100800.56;3619024;39;20036;-70
2021/06/29 06:18:44;;;;;;;3.40;1.60;;;;;;;22.69;40.81;100799.06;3613640;39;20116;-69
2021/06/29 06:21:12;;;;;;;3.17;1.80;;;;;;;22.68;40.79;100791.75;3609992;39;20376;-69
2021/06/29 06:23:40;;;;;;;4.25;1.80;;;;;;;22.68;40.81;100788.97;3610478;39;20040;-69
2021/06/29 06:26:08;;;;;;;3.28;1.60;;;;;;;22.69;40.92;100793.50;3610651;39;20027;-69
2021/06/29 06:28:38;;;;;;;2.40;1.30;;;;;;;22.69;40.57;100785.97;3609890;39;20434;-66
2021/06/29 06:31:07;;;;;;;4.03;1.50;;;;;;;22.67;40.45;100785.31;3609933;39;20031;-66
2021/06/29 06:33:35;;;;;;;3.28;1.65;;;;;;;22.67;40.88;100778.91;3610164;39;20028;-67
2021/06/29 06:36:11;;;;;;;3.47;1.63;;;;;;;22.67;40.61;100779.75;3608874;39;20032;-68
2021/06/29 06:38:39;;;;;;;3.63;1.25;;;;;;;22.68;41.09;100778.69;3609624;39;20365;-68
2021/06/29 06:41:13;;;;;;;3.45;1.77;;;;;;;22.71;40.91;100769.91;3615693;39;20039;-72
2021/06/29 06:43:43;;;;;;;2.42;1.25;;;;;;;22.76;40.89;100772.03;3609948;39;20055;-72
2021/06/29 06:46:11;;;;;;;2.90;1.50;;;;;;;22.78;40.57;100764.31;3609299;39;20363;-71
2021/06/29 06:48:40;;;;;;;2.95;1.48;;;;;;;22.81;40.74;100761.94;3608395;39;20052;-71
2021/06/29 06:51:10;;;;;;;2.65;1.33;;;;;;;22.83;40.62;100757.03;3607525;39;20051;-73
2021/06/29 06:53:38;;;;;;;2.28;1.35;;;;;;;22.85;40.58;100763.28;3610016;39;20058;-73
2021/06/29 06:56:13;;;;;;;3.22;1.60;;;;;;;22.90;40.66;100759.81;3610223;39;20470;-73
2021/06/29 06:58:44;;;;;;;3.03;1.67;;;;;;;22.95;40.64;100768.41;3618688;39;20326;-73
2021/06/29 07:01:14;;;;;;;3.90;1.77;;;;;;;22.97;40.86;100765.41;3611137;39;20051;-73
2021/06/29 07:03:44;;;;;;;2.58;1.50;;;;;;;23.02;40.40;100772.06;3608913;39;20058;-73
2021/06/29 07:06:16;;;;;;;3.00;1.60;;;;;;;23.05;40.31;100773.56;3610235;39;20164;-73
2021/06/29 07:11:42;;;;;;;3.22;1.50;;;;;;;23.05;40.24;100770.78;3597859;40;20345;-73
2021/06/29 07:14:12;;;;;;;2.95;1.80;;;;;;;23.08;40.15;100767.53;3594499;39;20057;-75
2021/06/29 07:16:41;;;;;;;3.70;2.00;;;;;;;23.05;40.23;100774.41;3592639;40;20056;-74
2021/06/29 07:19:09;;;;;;;3.92;2.10;;;;;;;23.04;40.42;100769.91;3599784;39;20406;-73
2021/06/29 07:24:42;;;;;;;3.58;1.90;;;;;;;22.99;40.66;100775.25;3619811;39;20027;-73
2021/06/29 07:27:11;;;;;;;3.13;1.92;;;;;;;23.01;39.90;100783.44;3620846;39;20044;-72
2021/06/29 07:29:41;;;;;;;2.63;1.73;;;;;;;23.04;40.02;100777.44;3595131;40;20419;-72
2021/06/29 07:32:09;;;;;;;5.65;2.20;;;;;;;23.00;39.90;100770.53;3609342;39;20065;-72
2021/06/29 07:34:37;;;;;;;3.70;1.95;;;;;;;23.00;39.83;100779.78;3610489;39;20044;-72
2021/06/29 07:37:07;;;;;;;3.38;1.92;;;;;;;22.99;39.56;100780.84;3610544;39;20028;-72
2021/06/29 07:39:35;;;;;;;3.17;2.05;;;;;;;22.96;40.05;100774.84;3609625;39;20040;-73
2021/06/29 07:42:04;;;;;;;3.42;2.20;;;;;;;22.95;39.50;100779.56;3610517;39;20028;-72
2021/06/29 07:44:32;;;;;;;3.55;2.20;;;;;;;22.92;39.71;100780.00;3610235;39;20024;-72
2021/06/29 07:47:01;;;;;;;4.30;2.35;;;;;;;22.90;39.65;100779.34;3609482;39;20118;-73
2021/06/29 07:49:33;;;;;;;5.00;2.50;;;;;;;22.86;39.89;100784.50;3610570;39;20035;-73
2021/06/29 07:52:04;;;;;;;3.80;2.38;;;;;;;22.84;39.57;100789.44;3610279;39;20097;-72
2021/06/29 07:54:32;;;;;;;5.40;2.65;;;;;;;22.81;39.83;100784.25;3610215;39;20398;-72
2021/06/29 07:57:00;;;;;;;4.28;2.28;;;;;;;22.77;39.95;100782.97;3609121;39;20042;-72
2021/06/29 07:59:28;;;;;;;3.90;2.13;;;;;;;22.74;39.90;100779.75;3610491;39;20027;-73
2021/06/29 08:01:56;;;;;;;3.53;2.13;;;;;;;22.72;40.20;100779.13;3598624;40;20032;-73
2021/06/29 08:04:26;;;;;;;4.25;2.20;;;;;;;22.72;40.37;100777.19;3578076;40;20427;-72
2021/06/29 08:06:55;;;;;;;4.93;2.40;;;;;;;22.69;39.82;100780.41;3578457;40;20041;-72
2021/06/29 08:09:23;;;;;;;3.67;2.38;;;;;;;22.69;40.35;100785.13;3578283;40;20029;-73
2021/06/29 08:12:05;;;;;;;4.68;2.13;;;;;;;22.69;40.78;100785.13;3568555;40;20097;-72
2021/06/29 08:14:35;;;;;;;4.15;2.40;;;;;;;22.70;40.32;100793.28;3583330;40;20313;-72
2021/06/29 08:17:04;;;;;;;3.53;2.17;;;;;;;22.71;40.56;100792.22;3590102;40;20129;-72
2021/06/29 08:19:34;;;;;;;4.40;3.25;;;;;;;22.73;40.67;100795.63;3600188;39;20039;-71
2021/06/29 08:22:02;;;;;;;4.38;2.70;;;;;;;22.73;40.53;100798.41;3599842;40;20044;-72
2021/06/29 08:24:31;;;;;;;4.35;2.70;;;;;;;22.73;40.64;100795.63;3600172;39;20080;-71
2021/06/29 08:27:02;;;;;;;4.75;2.90;;;;;;;22.74;40.82;100793.69;3600234;40;20033;-72
2021/06/29 08:29:30;;;;;;;5.05;2.95;;;;;;;22.75;40.58;100790.69;3606212;39;20031;-72
2021/06/29 08:31:58;;;;;;;6.20;2.70;;;;;;;22.76;40.64;100797.13;3609824;39;20108;-72
2021/06/29 08:34:27;;;;;;;4.40;2.67;;;;;;;22.77;41.04;100788.56;3610061;39;20028;-72
2021/06/29 08:36:58;;;;;;;5.03;2.50;;;;;;;22.81;40.87;100794.53;3609626;39;20394;-72
2021/06/29 08:39:26;;;;;;;5.43;3.38;;;;;;;22.82;40.91;100793.47;3610168;39;20023;-74
2021/06/29 08:41:54;;;;;;;4.50;3.08;;;;;;;22.87;40.89;100790.97;3599012;40;20034;-73
2021/06/29 08:44:23;;;;;;;5.13;3.35;;;;;;;22.90;40.99;100785.78;3599529;39;20028;-72
2021/06/29 08:46:51;;;;;;;5.30;3.53;;;;;;;22.94;40.93;100781.50;3598612;40;20113;-71
2021/06/29 08:49:19;;;;;;;5.55;3.28;;;;;;;22.98;41.11;100776.34;3599499;39;20340;-72
2021/06/29 08:51:50;;;;;;;5.25;3.65;;;;;;;23.03;40.83;100775.69;3600019;40;20295;-72
2021/06/29 08:54:23;;;;;;;4.80;3.33;;;;;;;23.07;41.00;100779.75;3577744;40;20081;-73
2021/06/29 08:56:51;;;;;;;7.93;3.67;;;;;;;23.06;40.74;100770.53;3578021;40;20446;-72
2021/06/29 08:59:19;;;;;;;5.82;3.35;;;;;;;23.12;40.80;100775.28;3567432;40;20029;-71
2021/06/29 09:01:48;;;;;;;5.35;3.15;;;;;;;23.17;40.98;100782.97;3567977;40;20040;-73
2021/06/29 09:04:36;;;;;;;4.93;3.35;;;;;;;23.22;40.67;100781.22;3547761;40;20034;-72
2021/06/29 09:07:17;;;;;;;4.75;3.10;;;;;;;23.30;40.89;100781.00;3567529;40;20038;-72
2021/06/29 09:09:50;;;;;;;4.85;3.22;;;;;;;23.35;40.72;100772.00;3567515;40;20038;-74
2021/06/29 09:12:43;;;;;;;5.05;3.38;;;;;;;23.38;40.86;100781.88;3567445;40;20087;-72
2021/06/29 09:15:30;;;;;;;4.95;3.35;;;;;;;23.44;40.80;100783.78;3567703;40;20034;-73
2021/06/29 09:18:09;;;;;;;5.45;3.42;;;;;;;23.48;40.39;100782.28;3567244;40;20041;-73
2021/06/29 09:20:39;;;;;;;4.35;3.03;;;;;;;23.52;40.32;100783.56;3591870;39;20036;-71
2021/06/29 09:23:13;;;;;;;5.35;3.78;;;;;;;23.57;39.89;100767.88;3599283;39;20036;-72
2021/06/29 09:25:47;;;;;;;5.68;3.88;;;;;;;23.60;40.51;100766.56;3599083;39;20072;-72
2021/06/29 09:28:18;;;;;;;5.28;4.00;;;;;;;23.63;40.16;100766.16;3599079;40;20056;-73
2021/06/29 09:30:48;;;;;;;5.07;3.75;;;;;;;23.64;40.31;100762.25;3599127;39;20093;-73
2021/06/29 09:33:18;;;;;;;5.32;4.05;;;;;;;23.68;40.53;100764.41;3599416;39;20040;-72
2021/06/29 09:35:50;;;;;;;5.85;4.05;;;;;;;23.74;40.21;100761.78;3599061;40;20036;-72
2021/06/29 09:38:22;;;;;;;5.38;4.07;;;;;;;23.75;40.33;100757.91;3599306;39;20028;-74
2021/06/29 09:41:01;;;;;;;7.78;4.28;;;;;;;23.81;40.56;100757.03;3598944;39;20379;-73
2021/06/29 09:43:32;;;;;;;5.95;4.53;;;;;;;23.87;40.40;100767.34;3598714;40;20033;-72
2021/06/29 09:46:02;;;;;;;5.80;3.95;;;;;;;23.92;40.45;100767.50;3598918;40;20114;-73
2021/06/29 09:48:37;;;;;;;8.18;4.25;;;;;;;24.00;40.23;100768.09;3598647;39;20117;-74
2021/06/29 09:51:09;;;;;;;6.35;4.43;;;;;;;24.04;40.29;100763.78;3598773;39;20036;-71
2021/06/29 09:53:41;;;;;;;6.00;4.72;;;;;;;24.09;40.49;100760.34;3598950;40;20036;-73
2021/06/29 09:56:13;;;;;;;6.82;5.00;;;;;;;24.20;40.55;100764.38;3598816;39;20042;-73
2021/06/29 09:58:46;;;;;;;6.47;4.57;;;;;;;24.27;40.70;100763.25;3598731;40;20331;-72
2021/06/29 10:01:16;;;;;;;6.30;5.23;;;;;;;24.33;40.53;100755.91;3597747;39;20402;-73
2021/06/29 10:03:45;;;;;;;6.85;5.30;;;;;;;24.44;40.66;100757.97;3599040;40;20339;-72
2021/06/29 10:06:15;;;;;;;7.15;5.38;;;;;;;24.57;40.55;100763.47;3597705;40;20036;-72
2021/06/29 10:08:45;;;;;;;7.60;5.72;;;;;;;24.69;40.04;100766.44;3598837;39;20043;-73
2021/06/29 10:11:21;;;;;;;7.55;5.25;;;;;;;24.79;39.74;100762.00;3598824;39;20083;-75
2021/06/29 10:14:00;;;;;;;6.43;5.20;;;;;;;24.90;39.70;100754.81;3598667;39;20036;-72
2021/06/29 10:16:31;;;;;;;8.38;5.93;;;;;;;24.99;39.81;100750.66;3598810;39;20028;-72
2021/06/29 10:19:24;;;;;;;6.40;5.10;;;;;;;25.07;39.66;100753.16;3598642;39;20033;-72
2021/06/29 10:21:53;;;;;;;;;;;;;;;24.86;40.28;100739.59;3599516;39;20255;-73
2021/06/29 10:24:24;;;;;;;6.05;4.30;;;;;;;25.25;39.61;100745.91;3598966;39;19976;-74
2021/06/29 10:26:56;;;;;;;7.45;5.45;;;;;;;25.40;39.04;100744.41;3598511;40;20061;-72
2021/06/29 10:29:25;;;;;;;;;;;;;;;25.16;39.53;100745.31;3598705;39;20113;-73
2021/06/29 10:31:56;;;;;;;8.00;5.72;;;;;;;25.54;38.68;100750.72;3598864;39;19940;-72
2021/06/29 10:34:25;;;;;;;7.35;5.20;;;;;;;25.63;38.61;100751.25;3598408;40;20383;-73
2021/06/29 10:36:54;;;;;;;8.15;5.40;;;;;;;25.71;38.29;100748.13;3586482;40;20032;-72
2021/06/29 10:39:25;;;;;;;7.15;6.18;;;;;;;25.75;38.19;100739.03;3586727;40;20036;-72
2021/06/29 10:42:00;;;;;;;6.22;5.13;;;;;;;25.81;37.58;100743.72;3586705;40;20499;-72
2021/06/29 10:44:30;;;;;;;6.57;5.32;;;;;;;25.84;38.01;100739.59;3586514;40;20110;-72
2021/06/29 10:46:58;;;;;;;6.55;4.82;;;;;;;25.87;37.79;100741.91;3586171;40;20167;-72
2021/06/29 10:49:47;;;;;;;6.93;5.28;;;;;;;25.92;37.02;100740.13;3586306;40;20040;-72
2021/06/29 10:52:40;;;;;;;5.97;4.75;;;;;;;25.92;37.15;100733.69;3586717;40;20061;-72
2021/06/29 10:55:25;;;;;;;5.95;4.63;;;;;;;25.99;36.68;100730.78;3559700;40;20042;-72
2021/06/29 10:57:57;;;;;;;6.03;4.40;;;;;;;26.02;36.92;100731.13;3592549;39;20387;-72
2021/06/29 11:00:32;;;;;;;6.63;4.90;;;;;;;26.05;37.10;100724.22;3599643;39;20060;-72
2021/06/29 11:03:10;;;;;;;6.95;5.32;;;;;;;26.11;36.61;100718.50;3600258;39;20357;-72
2021/06/29 11:05:41;;;;;;;6.50;4.72;;;;;;;26.12;36.72;100708.13;3608784;39;20054;-72
2021/06/29 11:08:12;;;;;;;4.78;3.70;;;;;;;26.14;36.49;100704.00;3610198;39;20028;-73
2021/06/29 11:10:44;;;;;;;5.93;4.35;;;;;;;26.16;36.66;100698.16;3609293;39;20286;-72
2021/06/29 11:13:14;;;;;;;5.88;4.45;;;;;;;26.21;36.58;100695.50;3608838;39;20060;-72
2021/06/29 11:15:46;;;;;;;7.68;4.47;;;;;;;26.26;36.50;100696.50;3609906;39;20414;-72
2021/06/29 11:18:15;;;;;;;7.15;4.40;;;;;;;26.29;36.34;100692.34;3610156;39;20091;-72
2021/06/29 11:20:46;;;;;;;6.47;4.72;;;;;;;26.36;36.53;100681.00;3609710;39;20032;-72
2021/06/29 11:23:20;;;;;;;6.32;4.80;;;;;;;26.45;36.04;100694.47;3610068;39;20039;-72
2021/06/29 11:25:53;;;;;;;5.40;4.50;;;;;;;26.51;36.06;100709.50;3609949;39;20040;-72
2021/06/29 11:28:45;;;;;;;6.30;5.18;;;;;;;26.57;35.72;100709.41;3609579;39;20080;-72
2021/06/29 11:31:25;;;;;;;6.70;4.90;;;;;;;26.65;35.01;100710.97;3577665;40;20041;-72
2021/06/29 11:33:56;;;;;;;7.20;4.43;;;;;;;26.71;35.54;100701.59;3585312;40;20028;-73
2021/06/29 11:36:52;;;;;;;4.88;4.07;;;;;;;26.71;35.22;100701.59;3588069;40;20114;-72
2021/06/29 11:39:34;;;;;;;5.18;4.15;;;;;;;26.80;34.54;100702.09;3569115;40;20025;-74
2021/06/29 11:42:20;;;;;;;5.15;4.20;;;;;;;26.83;34.29;100696.84;3609949;39;20083;-72
2021/06/29 11:45:01;;;;;;;6.18;4.85;;;;;;;26.86;34.27;100696.34;3599715;39;20047;-72
2021/06/29 11:47:38;;;;;;;5.43;4.35;;;;;;;26.88;34.37;100698.91;3599558;39;20036;-72
2021/06/29 11:50:23;;;;;;;5.25;3.97;;;;;;;26.89;34.36;100692.19;3602452;39;20036;-72